createdAt,value
2022-12-23T00:00:20.987Z,6.85
2022-12-23T00:03:25.951Z,5.85
2022-12-23T00:06:29.498Z,6.38
2022-12-23T00:09:32.976Z,7.40
2022-12-23T00:12:53.785Z,6.60
2022-12-23T00:16:02.785Z,6.72
2022-12-23T00:19:07.734Z,6.25
2022-12-23T00:22:14.674Z,6.88
2022-12-23T00:25:18.240Z,8.40
2022-12-23T00:28:22.767Z,5.57
2022-12-23T00:31:26.552Z,6.32
2022-12-23T00:34:31.377Z,7.43
2022-12-23T00:37:34.725Z,6.57
2022-12-23T00:41:01.199Z,6.82
2022-12-23T00:44:05.220Z,6.15
2022-12-23T00:47:28.796Z,7.22
2022-12-23T00:50:33.623Z,6.90
2022-12-23T00:53:36.941Z,7.63
2022-12-23T00:56:40.334Z,5.95
2022-12-23T00:59:43.688Z,5.85
2022-12-23T01:03:05.216Z,6.80
2022-12-23T01:06:10.084Z,6.80
2022-12-23T01:09:13.788Z,7.03
2022-12-23T01:12:17.609Z,7.30
2022-12-23T01:15:21.238Z,6.40
2022-12-23T01:18:24.725Z,6.45
2022-12-23T01:21:29.459Z,7.45
2022-12-23T01:24:33.384Z,6.82
2022-12-23T01:27:36.819Z,6.32
2022-12-23T01:30:40.436Z,6.72
2022-12-23T01:33:43.830Z,6.47
2022-12-23T01:36:48.636Z,6.13
2022-12-23T01:39:51.984Z,6.22
2022-12-23T01:42:55.347Z,6.10
2022-12-23T01:45:58.762Z,6.15
2022-12-23T01:49:02.313Z,6.45
2022-12-23T01:52:07.215Z,6.45
2022-12-23T01:55:10.948Z,6.03
2022-12-23T01:58:15.460Z,5.95
2022-12-23T02:01:37.126Z,5.47
2022-12-23T02:04:40.554Z,6.05
2022-12-23T02:08:03.559Z,6.10
2022-12-23T02:11:15.946Z,7.13
2022-12-23T02:14:41.627Z,7.45
2022-12-23T02:17:52.436Z,6.82
2022-12-23T02:21:19.833Z,7.15
2022-12-23T02:24:50.091Z,7.97
2022-12-23T02:28:04.028Z,6.47
2022-12-23T02:31:11.144Z,7.47
2022-12-23T02:34:17.611Z,8.75
2022-12-23T02:37:23.301Z,7.03
2022-12-23T02:40:33.336Z,7.63
2022-12-23T02:43:41.461Z,9.38
2022-12-23T02:46:48.439Z,8.57
2022-12-23T02:49:53.405Z,7.57
2022-12-23T02:52:58.923Z,7.75
2022-12-23T02:56:03.780Z,7.13
2022-12-23T02:59:10.389Z,9.35
2022-12-23T03:02:15.280Z,8.60
2022-12-23T03:05:25.803Z,8.88
2022-12-23T03:08:31.765Z,7.38
2022-12-23T03:11:40.141Z,8.45
2022-12-23T03:14:59.904Z,7.18
2022-12-23T03:18:07.177Z,8.38
2022-12-23T03:21:14.557Z,7.47
2022-12-23T03:24:23.440Z,8.57
2022-12-23T03:27:29.091Z,7.68
2022-12-23T03:30:35.394Z,8.00
2022-12-23T03:33:42.475Z,8.10
2022-12-23T03:36:48.652Z,8.60
2022-12-23T03:39:55.430Z,7.88
2022-12-23T03:43:02.363Z,9.43
2022-12-23T03:46:09.013Z,8.57
2022-12-23T03:49:16.879Z,9.13
2022-12-23T03:52:22.167Z,7.72
2022-12-23T03:55:27.991Z,7.82
2022-12-23T03:58:35.682Z,8.20
2022-12-23T04:01:42.230Z,9.07
2022-12-23T04:04:58.320Z,8.48
2022-12-23T04:08:05.457Z,7.78
2022-12-23T04:11:08.913Z,7.63
2022-12-23T04:14:12.322Z,8.50
2022-12-23T04:17:15.774Z,8.07
2022-12-23T04:20:20.774Z,7.93
2022-12-23T04:23:24.286Z,7.93
2022-12-23T04:26:27.660Z,8.40
2022-12-23T04:29:31.055Z,7.78
2022-12-23T04:32:34.753Z,8.63
2022-12-23T04:35:39.541Z,6.85
2022-12-23T04:38:42.980Z,6.88
2022-12-23T04:41:46.503Z,6.55
2022-12-23T04:44:50.628Z,7.30
2022-12-23T04:47:54.433Z,7.63
2022-12-23T04:50:59.340Z,6.90
2022-12-23T04:54:02.734Z,7.13
2022-12-23T04:57:06.221Z,6.35
2022-12-23T05:00:10.327Z,6.10
2022-12-23T05:03:13.885Z,6.95
2022-12-23T05:06:18.882Z,6.43
2022-12-23T05:09:22.457Z,7.20
2022-12-23T05:12:25.893Z,6.88
2022-12-23T05:15:29.371Z,7.28
2022-12-23T05:18:32.766Z,5.70
2022-12-23T05:21:37.710Z,6.18
2022-12-23T05:24:41.190Z,6.22
2022-12-23T05:27:44.595Z,6.28
2022-12-23T05:30:48.204Z,7.03
2022-12-23T05:33:51.535Z,6.13
2022-12-23T05:36:56.446Z,6.93
2022-12-23T05:39:59.829Z,6.28
2022-12-23T05:43:03.415Z,6.70
2022-12-23T05:46:07.046Z,6.72
2022-12-23T05:49:10.920Z,6.85
2022-12-23T05:52:16.586Z,6.93
2022-12-23T05:55:20.388Z,6.65
2022-12-23T05:58:23.938Z,7.45
2022-12-23T06:01:27.391Z,8.10
2022-12-23T06:04:30.786Z,6.50
2022-12-23T06:07:36.530Z,8.45
2022-12-23T06:10:40.739Z,8.05
2022-12-23T06:13:44.175Z,8.95
2022-12-23T06:16:47.640Z,10.00
2022-12-23T06:19:51.437Z,9.45
2022-12-23T06:22:56.352Z,8.35
2022-12-23T06:26:00.888Z,9.68
2022-12-23T06:29:04.920Z,9.88
2022-12-23T06:32:08.856Z,9.07
2022-12-23T06:35:12.322Z,9.55
2022-12-23T06:38:17.097Z,10.15
2022-12-23T06:41:20.631Z,9.07
2022-12-23T06:44:24.390Z,9.18
2022-12-23T06:47:27.846Z,8.65
2022-12-23T06:50:32.292Z,9.38
2022-12-23T06:53:37.859Z,9.13
2022-12-23T06:56:41.797Z,7.53
2022-12-23T06:59:45.378Z,9.88
2022-12-23T07:02:49.036Z,9.30
2022-12-23T07:05:52.824Z,8.93
2022-12-23T07:08:57.694Z,8.02
2022-12-23T07:12:01.180Z,7.90
2022-12-23T07:15:06.079Z,8.02
2022-12-23T07:18:09.773Z,7.85
2022-12-23T07:21:21.363Z,8.35
2022-12-23T07:24:29.866Z,7.75
2022-12-23T07:27:33.398Z,6.85
2022-12-23T07:30:37.513Z,8.18
2022-12-23T07:33:41.475Z,8.15
2022-12-23T07:36:44.881Z,7.40
2022-12-23T07:39:49.826Z,7.03
2022-12-23T07:42:58.753Z,6.85
2022-12-23T07:46:07.436Z,6.93
2022-12-23T07:49:10.911Z,7.95
2022-12-23T07:52:14.304Z,8.93
2022-12-23T07:55:19.087Z,8.10
2022-12-23T07:58:22.565Z,8.98
2022-12-23T08:01:26.067Z,8.55
2022-12-23T08:04:29.830Z,8.07
2022-12-23T08:07:33.560Z,9.23
2022-12-23T08:10:47.673Z,8.93
2022-12-23T08:13:52.905Z,8.07
2022-12-23T08:16:56.964Z,8.70
2022-12-23T08:20:02.273Z,8.52
2022-12-23T08:23:11.127Z,10.68
2022-12-23T08:26:17.620Z,9.73
2022-12-23T08:29:21.278Z,9.20
2022-12-23T08:32:27.240Z,8.35
2022-12-23T08:35:30.837Z,8.60
2022-12-23T08:38:34.696Z,8.93
2022-12-23T08:41:41.173Z,8.40
2022-12-23T08:44:45.211Z,7.20
2022-12-23T08:47:49.052Z,7.70
2022-12-23T08:50:52.828Z,7.78
2022-12-23T08:54:00.441Z,6.93
2022-12-23T08:57:06.110Z,7.57
2022-12-23T09:00:10.266Z,7.78
2022-12-23T09:03:17.670Z,7.28
2022-12-23T09:06:28.625Z,7.30
2022-12-23T09:09:38.778Z,6.72
2022-12-23T09:12:45.099Z,5.78
2022-12-23T09:15:49.174Z,6.85
2022-12-23T09:18:52.708Z,6.53
2022-12-23T09:21:56.565Z,6.78
2022-12-23T09:25:05.064Z,7.50
2022-12-23T09:28:12.203Z,7.63
2022-12-23T09:31:16.170Z,7.45
2022-12-23T09:34:19.720Z,7.32
2022-12-23T09:37:23.452Z,8.00
2022-12-23T09:40:30.513Z,7.22
2022-12-23T09:43:42.378Z,7.60
2022-12-23T09:46:48.817Z,7.40
2022-12-23T09:49:54.740Z,6.80
2022-12-23T09:53:00.972Z,7.78
2022-12-23T09:56:09.933Z,7.30
2022-12-23T09:59:22.409Z,7.60
2022-12-23T10:02:29.411Z,7.80
2022-12-23T10:05:36.871Z,8.95
2022-12-23T10:08:43.560Z,7.90
2022-12-23T10:11:55.205Z,9.13
2022-12-23T10:15:06.004Z,8.95
2022-12-23T10:18:14.351Z,8.65
2022-12-23T10:21:26.596Z,9.25
2022-12-23T10:24:37.660Z,9.07
2022-12-23T10:27:44.173Z,8.35
2022-12-23T10:31:23.708Z,8.52
2022-12-23T10:34:19.628Z,8.10
2022-12-23T10:37:28.221Z,8.38
2022-12-23T10:40:38.915Z,8.48
2022-12-23T10:43:48.452Z,8.35
2022-12-23T10:46:57.959Z,7.28
2022-12-23T10:50:12.823Z,7.45
2022-12-23T10:53:25.926Z,7.95
2022-12-23T10:56:31.139Z,8.02
2022-12-23T10:59:36.259Z,8.32
2022-12-23T11:02:48.293Z,8.95
2022-12-23T11:05:53.450Z,8.43
2022-12-23T11:08:57.935Z,8.77
2022-12-23T11:12:03.734Z,8.70
2022-12-23T11:15:08.107Z,8.48
2022-12-23T11:18:23.785Z,9.25
2022-12-23T11:21:28.255Z,8.48
2022-12-23T11:24:39.672Z,8.27
2022-12-23T11:27:46.596Z,9.25
2022-12-23T11:31:01.444Z,9.38
2022-12-23T11:34:07.244Z,9.15
2022-12-23T11:37:24.840Z,7.93
2022-12-23T11:40:29.446Z,8.80
2022-12-23T11:43:33.712Z,8.75
2022-12-23T11:46:37.176Z,8.48
2022-12-23T11:49:49.485Z,8.32
2022-12-23T11:52:53.721Z,8.45
2022-12-23T11:56:01.206Z,8.45
2022-12-23T11:59:07.703Z,9.23
2022-12-23T12:02:15.330Z,10.02
2022-12-23T12:05:23.385Z,10.50
2022-12-23T12:08:33.838Z,9.70
2022-12-23T12:11:41.131Z,10.13
2022-12-23T12:14:46.312Z,10.73
2022-12-23T12:17:57.672Z,9.63
2022-12-23T12:21:09.569Z,9.80
2022-12-23T12:24:21.478Z,9.10
2022-12-23T12:27:27.968Z,10.00
2022-12-23T12:30:34.943Z,10.15
2022-12-23T12:33:45.463Z,9.27
2022-12-23T12:36:54.049Z,9.85
2022-12-23T12:40:00.679Z,9.25
2022-12-23T12:43:06.878Z,9.70
2022-12-23T12:46:17.936Z,10.18
2022-12-23T12:49:27.134Z,9.05
2022-12-23T12:52:40.065Z,10.38
2022-12-23T12:55:50.012Z,10.60
2022-12-23T12:58:53.512Z,10.75
2022-12-23T13:02:09.040Z,10.15
2022-12-23T13:05:29.580Z,9.40
2022-12-23T13:08:41.347Z,9.85
2022-12-23T13:11:48.241Z,8.95
2022-12-23T13:14:58.955Z,9.52
2022-12-23T13:18:12.755Z,8.05
2022-12-23T13:21:21.563Z,9.38
2022-12-23T13:24:34.152Z,9.90
2022-12-23T13:27:41.455Z,9.10
2022-12-23T13:30:51.758Z,10.43
2022-12-23T13:33:59.662Z,9.75
2022-12-23T13:37:13.665Z,9.98
2022-12-23T13:40:27.029Z,10.98
2022-12-23T13:43:35.584Z,9.65
2022-12-23T13:46:45.402Z,9.73
2022-12-23T13:49:54.847Z,9.48
2022-12-23T13:53:05.153Z,9.45
2022-12-23T13:56:13.876Z,8.20
2022-12-23T13:59:17.952Z,8.80
2022-12-23T14:02:42.701Z,9.18
2022-12-23T14:05:50.083Z,8.38
2022-12-23T14:08:54.947Z,8.82
2022-12-23T14:12:13.602Z,9.18
2022-12-23T14:15:27.369Z,10.38
2022-12-23T14:18:47.778Z,9.05
2022-12-23T14:22:00.434Z,8.70
2022-12-23T14:25:23.946Z,9.60
2022-12-23T14:28:50.496Z,8.18
2022-12-23T14:31:59.950Z,8.32
2022-12-23T14:35:23.601Z,9.05
2022-12-23T14:38:29.001Z,8.93
2022-12-23T14:41:39.289Z,8.95
2022-12-23T14:44:49.671Z,9.52
2022-12-23T14:47:53.105Z,9.55
2022-12-23T14:51:00.123Z,11.00
2022-12-23T14:54:16.839Z,8.45
2022-12-23T14:57:23.084Z,8.75
2022-12-23T15:00:28.132Z,8.38
2022-12-23T15:03:38.436Z,9.73
2022-12-23T15:06:43.218Z,9.68
2022-12-23T15:10:08.794Z,8.98
2022-12-23T15:13:21.059Z,9.50
2022-12-23T15:16:36.868Z,10.57
2022-12-23T15:19:46.261Z,9.25
2022-12-23T15:22:50.265Z,10.25
2022-12-23T15:25:56.576Z,11.15
2022-12-23T15:29:03.702Z,10.55
2022-12-23T15:32:14.911Z,10.65
2022-12-23T15:35:25.353Z,10.27
2022-12-23T15:38:34.108Z,9.95
2022-12-23T15:41:44.260Z,8.68
2022-12-23T15:44:48.054Z,9.52
2022-12-23T15:47:53.443Z,9.15
2022-12-23T15:51:08.503Z,8.95
2022-12-23T15:54:28.137Z,9.27
2022-12-23T15:57:34.416Z,8.27
2022-12-23T16:00:42.549Z,8.65
2022-12-23T16:03:51.843Z,9.18
2022-12-23T16:06:56.865Z,10.30
2022-12-23T16:10:06.304Z,9.95
2022-12-23T16:13:22.473Z,10.20
2022-12-23T16:16:39.690Z,10.57
2022-12-23T16:19:47.688Z,10.50
2022-12-23T16:22:54.276Z,10.95
2022-12-23T16:26:09.088Z,10.57
2022-12-23T16:29:13.639Z,9.57
2022-12-23T16:32:20.379Z,10.05
2022-12-23T16:36:02.236Z,9.70
2022-12-23T16:39:13.509Z,9.48
2022-12-23T16:42:17.207Z,10.48
2022-12-23T16:45:21.047Z,10.40
2022-12-23T16:48:29.946Z,9.88
2022-12-23T16:51:35.403Z,9.85
2022-12-23T16:54:39.730Z,9.82
2022-12-23T16:57:43.531Z,11.07
2022-12-23T17:00:57.427Z,9.65
2022-12-23T17:04:01.798Z,9.32
2022-12-23T17:07:11.025Z,9.60
2022-12-23T17:10:15.612Z,10.02
2022-12-23T17:13:20.467Z,9.43
2022-12-23T17:16:25.251Z,10.30
2022-12-23T17:19:29.725Z,8.98
2022-12-23T17:22:35.770Z,8.75
2022-12-23T17:25:39.219Z,8.90
2022-12-23T17:28:42.601Z,9.20
2022-12-23T17:31:46.445Z,9.20
2022-12-23T17:34:49.973Z,10.35
2022-12-23T17:37:56.035Z,9.82
2022-12-23T17:41:21.716Z,9.52
2022-12-23T17:44:26.542Z,8.00
2022-12-23T17:47:40.115Z,9.88
2022-12-23T17:50:44.648Z,8.30
2022-12-23T17:53:57.729Z,8.02
2022-12-23T17:57:02.172Z,8.55
2022-12-23T18:00:09.938Z,8.10
2022-12-23T18:03:22.231Z,8.82
2022-12-23T18:06:26.499Z,8.68
2022-12-23T18:09:31.319Z,9.18
2022-12-23T18:12:36.266Z,8.07
2022-12-23T18:15:43.786Z,8.73
2022-12-23T18:18:47.401Z,9.13
2022-12-23T18:21:51.680Z,7.18
2022-12-23T18:24:59.528Z,8.40
2022-12-23T18:28:03.120Z,8.32
2022-12-23T18:31:06.829Z,9.15
2022-12-23T18:34:14.570Z,8.32
2022-12-23T18:37:18.455Z,10.48
2022-12-23T18:40:32.555Z,9.93
2022-12-23T18:43:36.441Z,10.98
2022-12-23T18:46:39.798Z,11.00
2022-12-23T18:49:43.979Z,10.55
2022-12-23T18:52:47.895Z,10.90
2022-12-23T18:55:52.781Z,9.13
2022-12-23T18:58:56.286Z,8.65
2022-12-23T19:01:59.783Z,6.95
2022-12-23T19:05:03.535Z,7.70
2022-12-23T19:08:06.970Z,6.70
2022-12-23T19:11:15.525Z,7.13
2022-12-23T19:14:19.386Z,7.63
2022-12-23T19:17:23.004Z,6.40
2022-12-23T19:20:26.496Z,6.55
2022-12-23T19:23:29.988Z,6.88
2022-12-23T19:26:34.707Z,7.10
2022-12-23T19:29:38.146Z,7.18
2022-12-23T19:32:41.795Z,6.50
2022-12-23T19:35:46.019Z,7.40
2022-12-23T19:38:49.571Z,6.53
2022-12-23T19:41:54.448Z,7.78
2022-12-23T19:44:58.015Z,6.88
2022-12-23T19:48:01.421Z,7.65
2022-12-23T19:51:05.812Z,7.28
2022-12-23T19:54:09.323Z,7.70
2022-12-23T19:57:14.338Z,8.10
2022-12-23T20:00:18.033Z,8.20
2022-12-23T20:03:21.632Z,8.02
2022-12-23T20:06:28.038Z,7.70
2022-12-23T20:09:31.459Z,6.53
2022-12-23T20:12:36.305Z,8.40
2022-12-23T20:15:39.915Z,6.95
2022-12-23T20:18:43.338Z,6.82
2022-12-23T20:21:46.982Z,7.28
2022-12-23T20:24:50.968Z,7.10
2022-12-23T20:27:55.827Z,6.57
2022-12-23T20:31:03.189Z,6.45
2022-12-23T20:34:07.387Z,6.80
2022-12-23T20:37:11.659Z,7.07
2022-12-23T20:40:17.635Z,7.85
2022-12-23T20:43:22.543Z,7.03
2022-12-23T20:46:26.026Z,7.45
2022-12-23T20:49:29.488Z,7.85
2022-12-23T20:52:33.126Z,7.10
2022-12-23T20:55:36.513Z,7.22
2022-12-23T20:58:57.600Z,7.55
2022-12-23T21:02:01.566Z,7.25
2022-12-23T21:05:05.506Z,7.20
2022-12-23T21:08:08.905Z,8.05
2022-12-23T21:11:12.788Z,7.63
2022-12-23T21:14:17.790Z,7.03
2022-12-23T21:17:23.647Z,7.53
2022-12-23T21:20:31.036Z,7.88
2022-12-23T21:23:37.887Z,7.20
2022-12-23T21:26:41.732Z,7.88
2022-12-23T21:29:47.526Z,6.35
2022-12-23T21:32:54.730Z,7.38
2022-12-23T21:35:58.429Z,7.28
2022-12-23T21:39:02.181Z,6.20
2022-12-23T21:42:05.693Z,6.63
2022-12-23T21:45:11.352Z,6.70
2022-12-23T21:48:14.723Z,6.50
2022-12-23T21:51:19.283Z,6.55
2022-12-23T21:54:23.118Z,6.80
2022-12-23T21:57:26.750Z,6.55
2022-12-23T22:00:31.924Z,6.47
2022-12-23T22:03:35.585Z,6.60
2022-12-23T22:06:40.073Z,6.75
2022-12-23T22:09:43.681Z,6.22
2022-12-23T22:12:47.158Z,6.03
2022-12-23T22:15:52.050Z,5.90
2022-12-23T22:18:55.895Z,5.97
2022-12-23T22:21:59.329Z,8.30
2022-12-23T22:25:03.216Z,7.32
2022-12-23T22:28:06.579Z,8.43
2022-12-23T22:31:17.354Z,6.70
2022-12-23T22:34:21.935Z,6.95
2022-12-23T22:37:25.280Z,7.32
2022-12-23T22:40:28.788Z,6.10
2022-12-23T22:43:32.208Z,6.00
2022-12-23T22:46:36.969Z,5.75
2022-12-23T22:49:40.449Z,5.90
2022-12-23T22:52:43.861Z,5.75
2022-12-23T22:55:47.322Z,6.47
2022-12-23T22:58:51.388Z,7.18
2022-12-23T23:01:56.398Z,7.65
2022-12-23T23:05:00.323Z,6.78
2022-12-23T23:08:03.790Z,7.45
2022-12-23T23:11:07.371Z,7.63
2022-12-23T23:14:10.912Z,7.30
2022-12-23T23:17:15.673Z,6.75
2022-12-23T23:20:19.165Z,7.57
2022-12-23T23:23:23.034Z,6.35
2022-12-23T23:26:27.227Z,7.07
2022-12-23T23:29:30.798Z,6.03
2022-12-23T23:32:35.706Z,6.35
2022-12-23T23:35:39.331Z,5.95
2022-12-23T23:38:42.751Z,5.75
2022-12-23T23:41:46.320Z,5.40
2022-12-23T23:44:49.748Z,5.75
2022-12-23T23:47:55.767Z,5.85
2022-12-23T23:51:04.609Z,5.88
2022-12-23T23:54:07.986Z,5.60
2022-12-23T23:57:11.415Z,5.03
